Time;durP1;ratioP1;P1;durP2;ratioP2;P2;SDS_P1;SDS_P2;PMS_P1;PMS_P2;Temp;Humidity;BMP_temperature;BMP_pressure;BME280_temperature;BME280_humidity;BME280_pressure;Samples;Min_cycle;Max_cycle;Signal;HPM_P1;HPM_P2
2021/10/31 00:01:04;;;;;;;6.10;4.72;;;;;;;22.93;60.15;101631.59;1741822;80;21134;-59
2021/10/31 00:03:32;;;;;;;5.75;4.70;;;;;;;22.91;60.11;101626.11;1746974;80;21114;-61
2021/10/31 00:05:58;;;;;;;5.30;4.45;;;;;;;22.90;60.05;101625.84;1742856;80;21114;-60
2021/10/31 00:08:24;;;;;;;6.55;4.30;;;;;;;22.88;60.03;101628.10;1753348;80;21167;-60
2021/10/31 00:10:50;;;;;;;5.80;4.53;;;;;;;22.86;60.01;101624.27;1728839;81;21098;-60
2021/10/31 00:13:17;;;;;;;7.08;4.50;;;;;;;22.86;60.08;101622.89;1712374;81;21058;-60
2021/10/31 00:15:43;;;;;;;6.20;4.28;;;;;;;22.87;60.19;101622.33;1728061;81;21146;-60
2021/10/31 00:18:09;;;;;;;6.20;4.47;;;;;;;22.91;60.24;101624.73;1726070;81;21008;-60
2021/10/31 00:20:35;;;;;;;6.17;4.37;;;;;;;22.91;60.27;101620.56;1737021;81;21304;-60
2021/10/31 00:23:01;;;;;;;7.58;4.90;;;;;;;22.90;60.25;101618.91;1735537;81;21087;-59
2021/10/31 00:25:27;;;;;;;6.60;4.92;;;;;;;22.88;60.22;101610.89;1714394;81;21058;-60
2021/10/31 00:27:53;;;;;;;5.87;4.67;;;;;;;22.87;60.17;101616.77;1738627;81;21521;-60
2021/10/31 00:30:19;;;;;;;6.47;4.65;;;;;;;22.86;60.18;101612.35;1735364;81;20928;-59
2021/10/31 00:32:45;;;;;;;6.50;5.10;;;;;;;22.86;60.14;101611.79;1712895;81;21595;-59
2021/10/31 00:35:11;;;;;;;5.97;4.22;;;;;;;22.87;60.08;101616.77;1749225;80;21371;-59
2021/10/31 00:37:37;;;;;;;7.62;4.50;;;;;;;22.84;60.02;101607.11;1744081;80;21056;-59
2021/10/31 00:40:05;;;;;;;6.28;4.30;;;;;;;22.83;59.99;101612.39;1715581;81;21066;-60
2021/10/31 00:42:31;;;;;;;6.65;4.65;;;;;;;22.80;59.96;101604.70;1735838;81;21138;-59
2021/10/31 00:44:57;;;;;;;5.45;4.17;;;;;;;22.77;59.96;101609.50;1734834;81;21106;-60
2021/10/31 00:50:07;;;;;;;5.80;4.12;;;;;;;22.85;59.97;101607.93;1857099;75;22396;-57
2021/10/31 00:52:33;;;;;;;6.17;4.37;;;;;;;22.83;59.96;101612.98;1815111;77;20985;-57
2021/10/31 00:54:59;;;;;;;6.00;4.30;;;;;;;22.83;60.03;101602.69;1810094;77;21444;-57
2021/10/31 00:57:25;;;;;;;6.15;4.30;;;;;;;22.84;60.08;101603.51;1815262;77;21017;-57
2021/10/31 00:59:52;;;;;;;6.42;4.55;;;;;;;22.82;60.10;101603.02;1820809;77;21554;-57
2021/10/31 01:02:18;;;;;;;5.62;4.10;;;;;;;22.82;60.14;101601.62;1813589;77;21132;-57
2021/10/31 01:04:52;;;;;;;5.45;4.08;;;;;;;22.82;60.13;101609.95;1816775;77;21050;-57
2021/10/31 01:07:52;;;;;;;7.85;4.50;;;;;;;22.84;60.10;101606.28;1786930;78;21274;-58
2021/10/31 01:10:46;;;;;;;5.58;4.08;;;;;;;22.84;60.02;101595.19;1786655;78;21508;-59
2021/10/31 01:13:40;;;;;;;6.05;4.35;;;;;;;22.82;59.92;101601.06;1786346;78;21014;-58
2021/10/31 01:16:15;;;;;;;5.47;4.40;;;;;;;22.78;59.86;101591.73;1773317;79;21108;-58
2021/10/31 01:19:12;;;;;;;7.80;4.85;;;;;;;22.74;59.81;101595.67;1774506;79;21076;-58
2021/10/31 01:22:06;;;;;;;5.67;4.10;;;;;;;22.73;59.83;101598.78;1773723;79;21114;-58
2021/10/31 01:24:50;;;;;;;7.60;4.75;;;;;;;22.72;59.80;101601.30;1775300;79;21103;-58
2021/10/31 01:27:31;;;;;;;6.00;4.33;;;;;;;22.70;59.75;101600.20;1772468;79;21097;-59
2021/10/31 01:30:30;;;;;;;6.28;4.40;;;;;;;22.66;59.71;101596.39;1773680;79;21056;-59
2021/10/31 01:33:16;;;;;;;6.95;4.25;;;;;;;22.64;59.71;101595.89;1774907;79;21079;-59
2021/10/31 01:36:09;;;;;;;6.35;3.90;;;;;;;22.63;59.80;101594.81;1776476;79;21078;-59
2021/10/31 01:39:14;;;;;;;6.28;4.22;;;;;;;22.65;59.90;101598.11;1770962;79;21146;-58
2021/10/31 01:41:51;;;;;;;5.45;3.90;;;;;;;22.66;59.98;101594.20;1775684;79;21017;-58
2021/10/31 01:44:56;;;;;;;5.70;4.35;;;;;;;22.63;59.95;101587.88;1777267;79;21612;-59
2021/10/31 01:47:33;;;;;;;6.62;4.40;;;;;;;22.61;59.95;101585.44;1779546;79;21046;-59
2021/10/31 01:50:39;;;;;;;6.28;4.30;;;;;;;22.59;59.92;101582.14;1728444;80;21297;-59
2021/10/31 01:53:29;;;;;;;6.75;4.22;;;;;;;22.61;59.91;101580.45;1744257;80;21052;-58
2021/10/31 01:56:15;;;;;;;5.58;4.22;;;;;;;22.64;59.84;101574.27;1702973;81;21100;-58
2021/10/31 01:58:49;;;;;;;6.03;4.20;;;;;;;22.63;59.77;101575.39;1732292;80;21047;-58
2021/10/31 02:01:15;;;;;;;6.62;4.40;;;;;;;22.59;59.73;101573.82;1742151;81;21096;-58
2021/10/31 02:03:42;;;;;;;5.92;4.37;;;;;;;22.56;59.71;101575.84;1740406;80;23263;-58
2021/10/31 02:06:09;;;;;;;5.60;4.20;;;;;;;22.53;59.71;101569.51;1739768;80;21118;-59
2021/10/31 02:08:36;;;;;;;5.10;3.70;;;;;;;22.51;59.73;101573.17;1738064;81;21140;-58
2021/10/31 02:11:03;;;;;;;5.33;4.00;;;;;;;22.55;59.74;101572.80;1738605;80;21475;-59
2021/10/31 02:13:29;;;;;;;5.53;3.70;;;;;;;22.58;59.80;101569.39;1736913;80;21115;-59
2021/10/31 02:15:55;;;;;;;5.67;3.47;;;;;;;22.58;59.86;101573.56;1737028;80;22472;-59
2021/10/31 02:18:23;;;;;;;7.50;4.28;;;;;;;22.59;59.91;101574.38;1738188;80;21041;-59
2021/10/31 02:20:53;;;;;;;6.72;3.87;;;;;;;22.59;59.98;101580.75;1738238;80;21137;-59
2021/10/31 02:23:19;;;;;;;5.92;3.70;;;;;;;22.59;60.00;101577.16;1740998;80;21105;-59
2021/10/31 02:25:46;;;;;;;5.58;3.98;;;;;;;22.59;59.99;101573.82;1739032;80;21026;-59
2021/10/31 02:28:13;;;;;;;4.62;3.77;;;;;;;22.62;59.95;101574.57;1737411;80;21261;-58
2021/10/31 02:30:39;;;;;;;4.87;3.70;;;;;;;22.62;59.87;101577.34;1741270;80;21083;-59
2021/10/31 02:33:05;;;;;;;5.58;3.87;;;;;;;22.63;59.81;101571.23;1738396;80;20978;-58
2021/10/31 02:35:31;;;;;;;5.35;4.10;;;;;;;22.62;59.75;101577.91;1738347;80;21088;-59
2021/10/31 02:37:57;;;;;;;4.75;3.33;;;;;;;22.59;59.71;101580.75;1735467;80;21093;-58
2021/10/31 02:40:23;;;;;;;5.75;4.00;;;;;;;22.58;59.71;101579.11;1736434;81;21093;-59
2021/10/31 02:42:50;;;;;;;5.08;3.72;;;;;;;22.59;59.69;101572.99;1738295;80;21058;-59
2021/10/31 02:45:17;;;;;;;5.53;3.87;;;;;;;22.60;59.64;101569.09;1740183;80;21026;-58
2021/10/31 02:47:53;;;;;;;5.20;3.67;;;;;;;22.58;59.60;101570.78;1737839;81;21187;-58
2021/10/31 02:50:23;;;;;;;5.30;3.95;;;;;;;22.55;59.56;101566.44;1754218;80;21042;-58
2021/10/31 02:53:15;;;;;;;4.10;3.40;;;;;;;22.52;59.54;101569.28;1760448;79;21311;-58
2021/10/31 02:55:49;;;;;;;4.15;3.47;;;;;;;22.52;59.56;101567.06;1759345;80;21141;-58
2021/10/31 02:58:29;;;;;;;5.62;3.80;;;;;;;22.55;59.63;101563.66;1774451;79;21124;-59
2021/10/31 03:00:59;;;;;;;5.03;3.80;;;;;;;22.57;59.71;101562.80;1783377;78;21433;-59
2021/10/31 03:03:25;;;;;;;5.00;3.60;;;;;;;22.58;59.72;101566.63;1761594;79;21095;-59
2021/10/31 03:05:57;;;;;;;5.60;3.33;;;;;;;22.56;59.74;101563.92;1788308;78;21168;-59
2021/10/31 03:08:22;;;;;;;4.53;3.33;;;;;;;22.54;59.74;101563.40;1785749;78;21015;-59
2021/10/31 03:10:55;;;;;;;4.92;3.20;;;;;;;22.56;59.67;101563.36;1783142;78;21685;-59
2021/10/31 03:13:21;;;;;;;3.30;2.33;;;;;;;22.58;59.53;101558.30;1783509;78;21050;-59
2021/10/31 03:15:47;;;;;;;3.25;2.35;;;;;;;22.62;59.35;101555.72;1780962;78;21073;-59
2021/10/31 03:18:13;;;;;;;3.27;1.87;;;;;;;22.63;59.19;101553.20;1785143;78;22105;-58
2021/10/31 03:20:39;;;;;;;3.20;2.25;;;;;;;22.64;59.01;101557.06;1784025;78;21167;-58
2021/10/31 03:23:05;;;;;;;3.47;2.33;;;;;;;22.65;58.89;101553.16;1783178;78;21396;-58
2021/10/31 03:25:31;;;;;;;3.50;2.50;;;;;;;22.66;58.77;101549.83;1783373;78;21070;-58
2021/10/31 03:27:57;;;;;;;3.45;2.47;;;;;;;22.66;58.68;101542.30;1786898;78;21768;-59
2021/10/31 03:30:24;;;;;;;3.72;2.27;;;;;;;22.68;58.53;101546.98;1784699;78;21351;-58
2021/10/31 03:32:50;;;;;;;3.45;2.40;;;;;;;22.68;58.40;101545.59;1781725;78;21121;-58
2021/10/31 03:35:16;;;;;;;2.85;2.10;;;;;;;22.70;58.30;101548.09;1786700;78;21653;-59
2021/10/31 03:37:42;;;;;;;3.05;2.10;;;;;;;22.67;58.24;101547.28;1781049;78;21110;-59
2021/10/31 03:40:10;;;;;;;3.33;2.55;;;;;;;22.68;58.18;101542.82;1781790;78;21477;-58
2021/10/31 03:42:37;;;;;;;5.20;2.45;;;;;;;22.70;58.12;101544.73;1787336;78;21231;-59
2021/10/31 03:45:06;;;;;;;2.92;2.05;;;;;;;22.71;58.07;101546.38;1786938;78;21140;-59
2021/10/31 03:47:33;;;;;;;4.10;2.70;;;;;;;22.68;57.98;101538.66;1787714;78;21120;-59
2021/10/31 03:50:00;;;;;;;3.02;2.45;;;;;;;22.70;57.96;101541.95;1764482;79;21120;-59
2021/10/31 03:52:26;;;;;;;3.45;2.37;;;;;;;22.70;57.95;101540.56;1765912;79;21073;-59
2021/10/31 03:54:52;;;;;;;3.15;2.10;;;;;;;22.72;57.92;101536.11;1766682;79;21530;-59
2021/10/31 03:57:18;;;;;;;3.12;2.40;;;;;;;22.73;57.89;101541.91;1771773;79;21036;-59
2021/10/31 03:59:45;;;;;;;4.05;2.42;;;;;;;22.76;57.86;101539.89;1774447;79;21122;-59
2021/10/31 04:02:11;;;;;;;3.40;1.98;;;;;;;22.79;57.86;101541.23;1767407;79;21026;-58
2021/10/31 04:04:37;;;;;;;2.30;1.80;;;;;;;22.83;57.96;101540.26;1769929;79;21572;-58
2021/10/31 04:07:03;;;;;;;3.05;2.20;;;;;;;22.85;58.02;101533.84;1771299;79;21202;-59
2021/10/31 04:09:30;;;;;;;3.37;2.22;;;;;;;22.89;58.03;101534.02;1767339;79;21615;-58
2021/10/31 04:11:56;;;;;;;3.00;2.33;;;;;;;22.92;58.01;101528.66;1770112;79;21752;-58
2021/10/31 04:14:22;;;;;;;4.28;2.37;;;;;;;22.96;57.92;101529.66;1774331;79;21088;-59
2021/10/31 04:16:49;;;;;;;3.50;2.05;;;;;;;22.98;57.83;101528.80;1766331;79;20988;-59
2021/10/31 04:19:15;;;;;;;2.92;2.00;;;;;;;22.99;57.75;101531.83;1770942;79;21076;-59
2021/10/31 04:21:41;;;;;;;3.35;2.15;;;;;;;23.00;57.68;101522.94;1773420;79;20985;-59
2021/10/31 04:24:07;;;;;;;3.22;2.30;;;;;;;23.00;57.62;101522.34;1770921;79;21092;-59
2021/10/31 04:26:33;;;;;;;3.08;2.08;;;;;;;23.04;57.60;101525.33;1766786;79;21499;-58
2021/10/31 04:28:59;;;;;;;2.65;2.17;;;;;;;23.06;57.55;101522.47;1771447;79;20941;-59
2021/10/31 04:31:25;;;;;;;2.90;2.25;;;;;;;23.07;57.46;101518.57;1765923;79;21656;-59
2021/10/31 04:33:52;;;;;;;3.92;2.30;;;;;;;23.07;57.42;101509.42;1766441;79;21559;-59
2021/10/31 04:36:18;;;;;;;2.65;1.85;;;;;;;23.08;57.39;101519.39;1772653;79;21100;-59
2021/10/31 04:38:48;;;;;;;3.95;2.10;;;;;;;23.06;57.36;101518.31;1771288;79;21021;-59
2021/10/31 04:41:13;;;;;;;3.17;2.10;;;;;;;23.06;57.36;101521.09;1773503;79;21401;-58
2021/10/31 04:43:39;;;;;;;3.50;2.00;;;;;;;23.06;57.37;101512.77;1771957;79;21220;-59
2021/10/31 04:46:06;;;;;;;2.80;2.02;;;;;;;23.07;57.39;101513.02;1769452;79;21459;-59
2021/10/31 04:48:32;;;;;;;3.33;1.85;;;;;;;23.07;57.35;101506.64;1770331;79;20898;-58
2021/10/31 04:50:58;;;;;;;6.08;2.22;;;;;;;23.09;57.35;101509.91;1768990;79;21088;-59
2021/10/31 04:53:24;;;;;;;3.35;2.20;;;;;;;23.10;57.43;101501.27;1770373;80;20906;-59
2021/10/31 04:55:50;;;;;;;3.02;2.20;;;;;;;23.12;57.57;101509.30;1766431;79;22210;-59
2021/10/31 04:58:16;;;;;;;2.80;2.20;;;;;;;23.15;57.71;101504.48;1769910;79;21053;-59
2021/10/31 05:00:42;;;;;;;3.50;2.35;;;;;;;23.19;57.79;101509.09;1769959;79;21506;-59
2021/10/31 05:03:09;;;;;;;4.17;2.50;;;;;;;23.22;57.80;101497.33;1764794;79;21040;-59
2021/10/31 05:05:35;;;;;;;3.62;2.55;;;;;;;23.25;57.79;101497.84;1770944;79;21539;-59
2021/10/31 05:08:02;;;;;;;3.20;2.60;;;;;;;23.25;57.75;101502.02;1767392;79;21558;-59
2021/10/31 05:10:28;;;;;;;3.27;2.12;;;;;;;23.25;57.74;101503.41;1763188;80;21174;-59
2021/10/31 05:12:54;;;;;;;4.03;2.27;;;;;;;23.23;57.69;101507.31;1772736;79;21086;-59
2021/10/31 05:15:20;;;;;;;3.20;2.35;;;;;;;23.25;57.69;101506.18;1770738;79;21023;-59
2021/10/31 05:17:46;;;;;;;3.27;2.25;;;;;;;23.27;57.65;101505.27;1776858;79;20874;-59
2021/10/31 05:20:13;;;;;;;2.90;2.10;;;;;;;23.27;57.59;101503.88;1767365;79;21158;-59
2021/10/31 05:22:39;;;;;;;4.28;2.33;;;;;;;23.25;57.58;101506.18;1769890;79;21029;-59
2021/10/31 05:25:07;;;;;;;3.77;2.45;;;;;;;23.23;57.54;101505.92;1772506;79;21579;-59
2021/10/31 05:27:36;;;;;;;3.33;2.33;;;;;;;23.20;57.53;101502.41;1771740;79;21052;-59
2021/10/31 05:30:05;;;;;;;3.92;2.45;;;;;;;23.19;57.57;101506.88;1775608;79;21399;-58
2021/10/31 05:32:33;;;;;;;3.12;2.22;;;;;;;23.18;57.58;101512.99;1766015;79;21161;-59
2021/10/31 05:34:59;;;;;;;3.25;2.05;;;;;;;23.18;57.55;101514.94;1770876;79;21066;-59
2021/10/31 05:37:34;;;;;;;3.15;2.10;;;;;;;23.16;57.54;101515.28;1768253;79;20927;-59
2021/10/31 05:39:56;;;;;;;3.45;2.37;;;;;;;23.15;57.53;101520.58;1771451;79;21103;-59
2021/10/31 05:42:22;;;;;;;3.27;2.15;;;;;;;23.14;57.54;101508.39;1770641;79;20987;-59
2021/10/31 05:44:48;;;;;;;2.12;1.62;;;;;;;23.15;57.63;101524.73;1769020;79;21107;-59
2021/10/31 05:47:14;;;;;;;3.80;2.27;;;;;;;23.18;57.76;101521.89;1768421;79;21065;-59
2021/10/31 05:49:40;;;;;;;3.00;2.37;;;;;;;23.21;57.85;101521.27;1770025;79;20993;-59
2021/10/31 05:52:07;;;;;;;5.30;2.67;;;;;;;23.23;57.91;101517.59;1774099;79;20995;-58
2021/10/31 05:54:33;;;;;;;3.80;2.70;;;;;;;23.23;57.91;101517.03;1773563;79;21129;-59
2021/10/31 05:57:00;;;;;;;3.77;2.62;;;;;;;23.26;57.85;101518.90;1776302;79;21291;-59
2021/10/31 05:59:26;;;;;;;3.60;2.20;;;;;;;23.23;57.83;101519.80;1774632;79;21508;-59
2021/10/31 06:01:52;;;;;;;3.45;2.30;;;;;;;23.24;57.81;101523.41;1785899;79;21045;-59
2021/10/31 06:04:18;;;;;;;3.55;2.30;;;;;;;23.26;57.80;101525.84;1788661;79;21641;-58
2021/10/31 06:06:46;;;;;;;4.17;2.65;;;;;;;23.25;57.74;101533.38;1787832;78;20913;-59
2021/10/31 06:09:12;;;;;;;3.47;2.33;;;;;;;23.26;57.68;101537.77;1755337;80;21963;-59
2021/10/31 06:11:38;;;;;;;3.67;2.33;;;;;;;23.23;57.64;101528.13;1782143;78;21648;-59
2021/10/31 06:14:05;;;;;;;4.47;2.65;;;;;;;23.22;57.59;101536.20;1788297;79;20905;-58
2021/10/31 06:16:31;;;;;;;2.72;2.15;;;;;;;23.20;57.58;101544.61;1751194;80;21109;-63
2021/10/31 06:18:57;;;;;;;5.85;2.50;;;;;;;23.19;57.60;101544.34;1791267;78;21016;-59
2021/10/31 06:21:23;;;;;;;3.98;2.35;;;;;;;23.18;57.59;101552.42;1784949;79;21053;-60
2021/10/31 06:23:49;;;;;;;16.12;4.87;;;;;;;23.18;57.55;101550.47;1790776;79;21365;-61
2021/10/31 06:26:15;;;;;;;15.48;4.72;;;;;;;23.18;57.50;101553.80;1795687;78;20873;-63
2021/10/31 06:28:41;;;;;;;15.75;4.45;;;;;;;23.17;57.50;101548.00;1787171;78;21074;-61
2021/10/31 06:31:07;;;;;;;18.30;5.17;;;;;;;23.14;57.49;101552.80;1785109;80;20899;-62
2021/10/31 06:33:33;;;;;;;13.45;4.40;;;;;;;23.13;57.52;101549.20;1785902;79;21333;-65
2021/10/31 06:35:59;;;;;;;15.10;4.22;;;;;;;23.15;57.62;101551.11;1789165;78;21290;-60
2021/10/31 06:38:25;;;;;;;10.55;3.55;;;;;;;23.18;57.75;101562.14;1796804;78;20908;-60
2021/10/31 06:40:52;;;;;;;16.20;4.75;;;;;;;23.21;57.85;101551.81;1793353;78;21550;-61
2021/10/31 06:43:18;;;;;;;14.28;4.05;;;;;;;23.23;57.91;101552.30;1783710;78;21102;-62
2021/10/31 06:45:44;;;;;;;17.52;4.97;;;;;;;23.23;57.91;101557.28;1790692;78;21217;-61
2021/10/31 06:48:11;;;;;;;36.45;8.48;;;;;;;23.24;57.89;101552.55;1786175;78;21066;-60
2021/10/31 06:50:37;;;;;;;27.15;6.47;;;;;;;23.25;57.89;101557.54;1786147;78;21060;-60
2021/10/31 06:53:03;;;;;;;20.23;5.45;;;;;;;23.23;57.89;101554.50;1787243;78;20880;-60
2021/10/31 06:55:29;;;;;;;7.62;4.30;;;;;;;23.24;57.85;101552.55;1790214;78;21529;-62
2021/10/31 06:57:56;;;;;;;7.95;5.03;;;;;;;23.26;57.75;101553.60;1784613;78;22149;-62
2021/10/31 07:00:22;;;;;;;7.22;5.20;;;;;;;23.23;57.35;101548.13;1795100;78;21532;-63
2021/10/31 07:02:48;;;;;;;8.85;5.33;;;;;;;23.22;56.85;101550.64;1787780;78;21034;-63
2021/10/31 07:05:14;;;;;;;8.43;5.72;;;;;;;23.17;56.36;101543.27;1792621;78;21063;-60
2021/10/31 07:07:40;;;;;;;9.50;5.58;;;;;;;23.11;55.83;101546.50;1787070;78;21085;-65
2021/10/31 07:10:07;;;;;;;9.93;5.53;;;;;;;23.08;55.44;101547.16;1789786;78;21302;-65
2021/10/31 07:12:33;;;;;;;9.75;5.30;;;;;;;23.05;55.07;101546.38;1791139;78;21109;-62
2021/10/31 07:14:59;;;;;;;10.20;5.85;;;;;;;23.02;54.69;101545.06;1788030;78;21031;-60
2021/10/31 07:17:26;;;;;;;12.73;6.10;;;;;;;23.00;54.33;101547.32;1787740;78;21053;-58
2021/10/31 07:19:52;;;;;;;13.13;5.55;;;;;;;22.97;54.12;101552.13;1785722;78;21050;-58
2021/10/31 07:22:19;;;;;;;20.92;7.22;;;;;;;22.94;54.08;101547.78;1789567;79;21289;-57
2021/10/31 07:24:52;;;;;;;21.35;6.90;;;;;;;22.91;54.14;101542.86;1788668;78;21121;-59
2021/10/31 07:27:18;;;;;;;12.80;5.20;;;;;;;22.91;54.23;101543.69;1788033;79;21090;-60
2021/10/31 07:29:44;;;;;;;13.32;5.70;;;;;;;22.92;54.28;101542.53;1786774;79;21026;-60
2021/10/31 07:32:10;;;;;;;16.52;6.87;;;;;;;22.95;54.30;101546.65;1791214;78;21042;-61
2021/10/31 07:34:36;;;;;;;27.73;10.48;;;;;;;22.94;54.33;101543.05;1792328;78;21931;-57
2021/10/31 07:37:04;;;;;;;9.30;4.90;;;;;;;22.93;54.36;101546.13;1794873;78;21019;-69
2021/10/31 07:39:30;;;;;;;60.92;17.45;;;;;;;22.91;54.40;101549.23;1784612;78;21055;-64
2021/10/31 07:41:56;;;;;;;34.65;10.25;;;;;;;22.89;54.47;101538.19;1786024;78;21558;-59
2021/10/31 07:44:22;;;;;;;20.20;7.85;;;;;;;22.90;54.52;101540.66;1784907;78;20938;-59
2021/10/31 07:46:48;;;;;;;10.15;5.45;;;;;;;22.91;54.59;101543.69;1782044;79;21548;-62
2021/10/31 07:49:14;;;;;;;14.38;5.67;;;;;;;22.93;54.62;101541.97;1788790;78;20861;-61
2021/10/31 07:51:40;;;;;;;22.98;7.17;;;;;;;22.92;54.65;101541.70;1791536;78;20979;-63
2021/10/31 07:54:06;;;;;;;30.45;9.68;;;;;;;22.91;54.68;101535.93;1789598;78;21050;-67
2021/10/31 07:56:35;;;;;;;101.45;29.30;;;;;;;22.89;54.72;101532.08;1794767;78;21603;-66
2021/10/31 07:59:01;;;;;;;28.00;7.80;;;;;;;22.87;54.77;101529.38;1795569;78;21114;-67
2021/10/31 08:01:27;;;;;;;31.20;10.40;;;;;;;22.89;54.84;101525.70;1793171;78;21561;-61
2021/10/31 08:03:53;;;;;;;21.23;7.03;;;;;;;22.89;54.88;101529.30;1789265;78;20919;-62
2021/10/31 08:06:22;;;;;;;12.68;5.33;;;;;;;22.89;54.91;101525.13;1791135;78;22179;-61
2021/10/31 08:08:48;;;;;;;20.77;6.78;;;;;;;22.90;54.92;101522.62;1793335;78;21091;-63
2021/10/31 08:11:14;;;;;;;13.45;5.17;;;;;;;22.89;54.93;101526.52;1794138;78;21133;-60
2021/10/31 08:13:42;;;;;;;17.48;5.72;;;;;;;22.88;54.96;101526.27;1794565;78;21014;-60
2021/10/31 08:16:08;;;;;;;16.67;5.50;;;;;;;22.87;55.01;101520.48;1795659;78;20915;-61
2021/10/31 08:18:34;;;;;;;21.45;5.97;;;;;;;22.88;55.04;101513.78;1790650;78;21485;-60
2021/10/31 08:21:00;;;;;;;17.35;5.75;;;;;;;22.90;55.07;101517.63;1786677;78;21053;-61
2021/10/31 08:23:27;;;;;;;6.67;3.98;;;;;;;22.88;55.09;101516.55;1794895;78;21551;-63
2021/10/31 08:25:53;;;;;;;19.30;6.30;;;;;;;22.89;55.08;101518.77;1779865;78;21023;-62
2021/10/31 08:28:20;;;;;;;33.28;10.30;;;;;;;22.87;55.14;101518.27;1791714;78;21061;-61
2021/10/31 08:30:55;;;;;;;23.45;7.00;;;;;;;22.87;55.18;101514.11;1791203;78;21050;-59
2021/10/31 08:33:23;;;;;;;23.95;6.95;;;;;;;22.90;55.22;101523.19;1782799;78;21174;-64
2021/10/31 08:35:47;;;;;;;39.13;8.33;;;;;;;22.92;55.22;101513.96;1749277;80;22036;-61
2021/10/31 08:38:14;;;;;;;49.55;16.50;;;;;;;22.94;55.23;101520.03;1776750;79;21050;-59
2021/10/31 08:40:41;;;;;;;15.40;5.17;;;;;;;22.95;55.26;101518.90;1783094;79;21044;-58
2021/10/31 08:43:08;;;;;;;6.47;3.42;;;;;;;22.98;55.33;101521.03;1772866;79;21460;-59
2021/10/31 08:45:36;;;;;;;6.20;4.80;;;;;;;23.03;55.32;101521.73;1771944;79;21017;-59
2021/10/31 08:48:03;;;;;;;8.03;4.37;;;;;;;23.07;55.28;101515.80;1775164;79;22055;-60
2021/10/31 08:50:29;;;;;;;8.50;5.42;;;;;;;23.13;55.10;101520.06;1772802;79;21045;-59
2021/10/31 08:52:55;;;;;;;8.93;4.78;;;;;;;23.16;54.86;101518.63;1738603;80;20966;-61
2021/10/31 08:55:21;;;;;;;6.90;4.40;;;;;;;23.18;54.58;101511.60;1739324;80;20867;-61
2021/10/31 08:57:47;;;;;;;6.78;4.65;;;;;;;23.19;54.34;101500.76;1731609;80;21668;-61
2021/10/31 09:00:13;;;;;;;6.58;4.30;;;;;;;23.19;54.14;101502.71;1738469;80;22008;-61
2021/10/31 09:02:40;;;;;;;6.40;4.00;;;;;;;23.22;53.95;101494.56;1734338;80;21116;-61
2021/10/31 09:05:07;;;;;;;6.83;5.00;;;;;;;23.24;53.72;101498.41;1732625;80;21497;-61
2021/10/31 09:07:34;;;;;;;7.40;4.67;;;;;;;23.27;53.53;101490.00;1789044;78;21055;-61
2021/10/31 09:10:01;;;;;;;6.15;4.58;;;;;;;23.28;53.28;101487.48;1786821;78;21097;-61
2021/10/31 09:12:27;;;;;;;7.17;4.35;;;;;;;23.27;53.08;101488.05;1788460;78;22102;-62
2021/10/31 09:14:57;;;;;;;8.95;4.90;;;;;;;23.26;52.92;101477.25;1780914;79;21158;-62
2021/10/31 09:17:23;;;;;;;7.65;5.50;;;;;;;23.26;52.75;101478.08;1790679;78;21035;-61
2021/10/31 09:19:49;;;;;;;9.05;5.10;;;;;;;23.26;52.59;101475.30;1728552;80;21056;-62
2021/10/31 09:22:15;;;;;;;7.62;5.10;;;;;;;23.28;52.44;101468.05;1730161;81;21069;-62
2021/10/31 09:24:41;;;;;;;6.47;4.60;;;;;;;23.29;52.29;101470.52;1727615;81;20999;-63
2021/10/31 09:27:07;;;;;;;7.25;4.83;;;;;;;23.29;52.13;101465.53;1724013;81;21505;-62
2021/10/31 09:29:33;;;;;;;8.28;5.10;;;;;;;23.26;52.00;101464.20;1722247;81;21409;-62
2021/10/31 09:31:59;;;;;;;10.10;5.50;;;;;;;23.27;51.91;101456.69;1729449;81;20899;-60
2021/10/31 09:34:27;;;;;;;17.95;9.48;;;;;;;23.28;51.85;101456.38;1707924;82;21085;-61
2021/10/31 09:36:54;;;;;;;9.55;7.30;;;;;;;23.32;51.78;101452.39;1727462;81;21903;-62
2021/10/31 09:39:20;;;;;;;21.95;12.40;;;;;;;23.33;51.71;101448.48;1729018;81;21015;-62
2021/10/31 09:41:46;;;;;;;23.20;8.68;;;;;;;23.32;51.61;101449.61;1736489;81;21562;-59
2021/10/31 09:44:20;;;;;;;10.75;6.47;;;;;;;23.32;51.58;101446.27;1730161;81;21114;-60
2021/10/31 09:46:41;;;;;;;11.95;6.65;;;;;;;23.33;51.56;101437.37;1732993;81;21025;-59
2021/10/31 09:49:08;;;;;;;10.08;6.45;;;;;;;23.34;51.51;101438.42;1736347;81;23306;-62
2021/10/31 09:51:34;;;;;;;8.43;6.37;;;;;;;23.36;51.48;101438.94;1742800;80;21039;-62
2021/10/31 09:54:01;;;;;;;10.13;6.47;;;;;;;23.38;51.43;101428.30;1759287;80;21065;-63
2021/10/31 09:56:28;;;;;;;16.40;8.73;;;;;;;23.38;51.39;101423.35;1757280;80;20998;-61
2021/10/31 09:58:58;;;;;;;9.90;5.87;;;;;;;23.37;51.35;101431.42;1757798;79;21143;-61
2021/10/31 10:01:37;;;;;;;8.03;6.37;;;;;;;23.37;51.30;101424.48;1778978;78;21094;-61
2021/10/31 10:04:01;;;;;;;9.03;6.08;;;;;;;23.39;51.29;101419.41;1780986;78;21156;-61
2021/10/31 10:06:28;;;;;;;9.75;5.97;;;;;;;23.40;51.30;101412.16;1776764;78;21930;-61
2021/10/31 10:09:07;;;;;;;7.72;5.72;;;;;;;23.41;51.24;101411.59;1782941;78;21086;-60
2021/10/31 10:11:40;;;;;;;7.78;6.35;;;;;;;23.40;51.18;101412.16;1784881;78;21038;-61
2021/10/31 10:14:25;;;;;;;9.48;6.28;;;;;;;23.38;51.13;101406.09;1775126;80;21074;-61
2021/10/31 10:17:05;;;;;;;8.10;5.53;;;;;;;23.38;51.11;101409.47;1777196;80;20984;-62
2021/10/31 10:19:34;;;;;;;7.10;5.67;;;;;;;23.37;51.05;101403.09;1780770;78;21039;-63
2021/10/31 10:22:09;;;;;;;7.60;5.40;;;;;;;23.38;51.01;101401.92;1781190;78;21877;-58
2021/10/31 10:24:55;;;;;;;12.60;6.87;;;;;;;23.39;50.94;101398.58;1749940;81;21023;-59
2021/10/31 10:27:25;;;;;;;8.95;6.17;;;;;;;23.38;50.89;101396.37;1759499;80;21076;-60
2021/10/31 10:29:52;;;;;;;13.00;6.45;;;;;;;23.36;50.83;101393.11;1761234;80;21467;-58
2021/10/31 10:32:24;;;;;;;9.40;6.05;;;;;;;23.37;50.79;101391.16;1757103;81;21088;-61
2021/10/31 10:34:56;;;;;;;11.40;6.22;;;;;;;23.37;50.77;101381.45;1757840;80;21000;-62
2021/10/31 10:37:34;;;;;;;10.55;6.25;;;;;;;23.37;50.75;101378.66;1759260;81;21109;-61
2021/10/31 10:40:08;;;;;;;11.20;6.15;;;;;;;23.37;50.68;101369.77;1779267;80;21312;-60
2021/10/31 10:42:48;;;;;;;8.05;5.47;;;;;;;23.39;50.71;101372.20;1778603;78;21095;-61
2021/10/31 10:45:21;;;;;;;13.62;6.42;;;;;;;23.40;50.76;101369.11;1763533;80;21104;-62
2021/10/31 10:48:03;;;;;;;9.80;5.85;;;;;;;23.42;50.84;101368.23;1762621;80;21504;-62
2021/10/31 10:50:40;;;;;;;6.87;5.08;;;;;;;23.46;50.89;101361.49;1744778;80;21532;-62
2021/10/31 10:53:17;;;;;;;7.35;4.80;;;;;;;23.48;50.99;101355.02;1761542;79;21310;-61
2021/10/31 10:55:43;;;;;;;8.48;4.97;;;;;;;23.47;51.06;101356.98;1757071;80;21467;-62
2021/10/31 10:58:17;;;;;;;7.40;5.20;;;;;;;23.48;51.19;101353.07;1763146;79;21078;-61
2021/10/31 11:00:49;;;;;;;8.45;5.70;;;;;;;23.49;51.29;101344.99;1765488;79;21070;-61
2021/10/31 11:03:20;;;;;;;6.92;4.75;;;;;;;23.50;51.41;101348.02;1761657;80;21022;-61
2021/10/31 11:06:01;;;;;;;6.17;4.65;;;;;;;23.53;51.49;101340.99;1766804;80;21978;-61
2021/10/31 11:08:28;;;;;;;7.45;4.95;;;;;;;23.54;51.57;101337.08;1772049;79;21060;-62
2021/10/31 11:11:02;;;;;;;6.62;5.22;;;;;;;23.52;51.65;101332.41;1766959;79;21093;-62
2021/10/31 11:13:30;;;;;;;8.50;5.22;;;;;;;23.53;51.75;101331.27;1769902;79;21076;-62
2021/10/31 11:15:59;;;;;;;6.90;5.15;;;;;;;23.52;51.85;101323.50;1770319;79;21099;-61
2021/10/31 11:18:26;;;;;;;6.07;4.60;;;;;;;23.55;51.93;101323.45;1771221;80;21049;-62
2021/10/31 11:20:52;;;;;;;5.65;4.50;;;;;;;23.54;51.99;101319.84;1769420;80;20984;-61
2021/10/31 11:23:23;;;;;;;6.85;5.05;;;;;;;23.56;52.05;101322.28;1769284;79;21130;-62
2021/10/31 11:25:50;;;;;;;6.40;4.80;;;;;;;23.54;52.12;101315.68;1771449;79;21555;-62
2021/10/31 11:28:18;;;;;;;7.22;4.97;;;;;;;23.54;52.22;101310.12;1769757;79;21015;-62
2021/10/31 11:30:46;;;;;;;7.15;4.37;;;;;;;23.56;52.30;101310.59;1768407;79;21271;-62
2021/10/31 11:33:13;;;;;;;6.92;4.72;;;;;;;23.58;52.36;101311.67;1765422;79;21071;-61
2021/10/31 11:35:40;;;;;;;5.80;4.58;;;;;;;23.59;52.40;101303.59;1767954;80;21336;-62